Flight Track Log - Related Links

Times and Time Zones

All times are in EDT time to prevent confusion due to time zone crossing. See the N6971Z flight status page for this flight to view local times or setup timezone preferences in your user account.

Time Position Orientation Groundspeed Altitude Reporting Facility
EDT Latitude Longitude Course Direction KTS MPH feet Rate Location/Type
Mon 12:38:11 PM 34.9944 -81.0558 334° Northwest 99 114 1,000  Level FAA TRACON SMA TRACON (SMA)
Mon 12:38:51 PM 35.0144 -81.0675 238° Southwest 140 161 2,000 1,575 Climbing FAA TRACON SMA TRACON (SMA)
Mon 12:39:31 PM 35.0022 -81.0914 171° South 150 173 3,100 1,643 Climbing FAA TRACON SMA TRACON (SMA)
Mon 12:40:15 PM 34.9703 -81.0856 167° South 172 198 4,300 1,725 Climbing FAA TRACON SMA TRACON (SMA)
Mon 12:40:51 PM 34.9378 -81.0761 103° East 182 209 5,400 1,816 Climbing FAA TRACON SMA TRACON (SMA)
Mon 12:41:31 PM 34.9308 -81.0408 71° East 176 203 6,600 1,875 Climbing FAA TRACON SMA TRACON (SMA)
Mon 12:42:11 PM 34.9406 -81.0056 75° East 165 190 7,900 1,852 Climbing FAA TRACON SMA TRACON (SMA)
Mon 12:42:52 PM 34.9486 -80.9686 71° East 162 186 9,100 1,650 Climbing FAA TRACON SMA TRACON (SMA)
Mon 12:43:31 PM 34.9583 -80.9347 72° East 161 185 10,100 1,519 Climbing FAA TRACON SMA TRACON (SMA)
Mon 12:44:11 PM 34.9681 -80.8981 72° East 167 192 11,100 1,500 Climbing FAA TRACON SMA TRACON (SMA)
Mon 12:44:51 PM 34.9786 -80.8578 71° East 177 204 12,100 1,275 Climbing FAA TRACON SMA TRACON (SMA)
Mon 12:45:31 PM 34.9892 -80.8194 72° East 188 216 12,800 675 Climbing FAA TRACON SMA TRACON (SMA)
Mon 12:46:11 PM 35.0025 -80.7694 72° East 220 253 13,000 74 Climbing FAA TRACON SMA TRACON (SMA)
Mon 12:46:52 PM 35.0172 -80.7147 72° East 239 275 12,900  Descending FAA TRACON SMA TRACON (SMA)
Mon 12:47:31 PM 35.0308 -80.6642 72° East 251 289 13,000 76 Climbing FAA TRACON SMA TRACON (SMA)
Mon 12:48:11 PM 35.0461 -80.6056 72° East 259 298 13,000  Level FAA TRACON SMA TRACON (SMA)
Mon 12:48:51 PM 35.0617 -80.5461 72° East 262 302 13,000 -75 Level FAA TRACON SMA TRACON (SMA)
Mon 12:49:31 PM 35.0758 -80.4933 72° East 264 304 12,900 -74 Descending FAA TRACON SMA TRACON (SMA)
Mon 12:50:12 PM 35.0919 -80.4339 72° East 265 305 12,900  Level FAA TRACON SMA TRACON (SMA)
Mon 12:50:52 PM 35.1075 -80.3736 72° East 267 307 12,900  Level FAA TRACON SMA TRACON (SMA)
Mon 12:51:31 PM 35.1219 -80.3200 72° East 268 308 12,900 76 Level FAA TRACON SMA TRACON (SMA)
Mon 12:52:11 PM 35.1381 -80.2597 72° East 268 308 13,000 75 Climbing FAA TRACON SMA TRACON (SMA)
Mon 12:52:51 PM 35.1539 -80.1994 72° East 269 310 13,000  Level FAA TRACON SMA TRACON (SMA)
Mon 12:53:31 PM 35.1678 -80.1461 73° East 268 308 13,000  Level FAA TRACON SMA TRACON (SMA)
Mon 12:54:12 PM 35.1831 -80.0858 72° East 266 306 13,000  Level FAA TRACON SMA TRACON (SMA)
Mon 12:54:51 PM 35.1953 -80.0389 74° East 268 308 13,000  Level FAA TRACON SMA TRACON (SMA)
Mon 12:55:31 PM 35.2117 -79.9706 96° East 271 312 13,000  Level FAA TRACON SMA TRACON (SMA)
Mon 12:56:11 PM 35.2103 -79.9556 89° East 275 316 13,000  Level FAA TRACON SMA TRACON (SMA)
Mon 12:57:33 PM 35.2125 -79.7817 62° Northeast 273 314 13,000 -127 Level Washington Center
Mon 12:58:33 PM 35.2467 -79.7044 44° Northeast 254 292 12,700 -407 Descending Washington Center
Mon 12:59:31 PM 35.3031 -79.6386 45° Northeast 263 303 12,200 -504 Descending Washington Center
Mon 01:00:32 PM 35.3597 -79.5703 46° Northeast 278 320 11,700 -545 Descending Washington Center
Mon 01:01:32 PM 35.4119 -79.5039 45° Northeast 279 321 11,100 -298 Descending Washington Center
Mon 01:02:33 PM 35.4642 -79.4403 46° Northeast 268 308 11,100  Level Washington Center
Mon 01:03:33 PM 35.5119 -79.3789 54° Northeast 258 297 11,100 -50 Level Washington Center
Mon 01:04:34 PM 35.5539 -79.3067 52° Northeast 255 293 11,000 -101 Descending Washington Center
Mon 01:05:32 PM 35.5978 -79.2372 54° Northeast 247 284 10,900 -590 Descending Washington Center
Mon 01:06:36 PM 35.6394 -79.1675 53° Northeast 253 291 9,800 -992 Descending Washington Center
Mon 01:07:33 PM 35.6789 -79.1028 52° Northeast 242 278 8,900 -939 Descending Washington Center
Mon 01:08:31 PM 35.7139 -79.0481 53° Northeast 237 273 8,000 -365 Descending Washington Center
Mon 01:10:01 PM 35.7708 -78.9533 66° East 220 253 8,000  Level Washington Center
Mon 01:11:08 PM 35.8003 -78.8725 79° East 232 267 8,000  Level Washington Center
Mon 01:11:44 PM 35.8078 -78.8269 75° East 238 274 8,000 -121 Level Washington Center
Mon 01:12:47 PM 35.8267 -78.7406 51° Northeast 240 276 7,800 -567 Descending Washington Center
Mon 01:13:51 PM 35.8681 -78.6781 46° Northeast 216 249 6,800 -1,031 Descending Washington Center
Mon 01:14:55 PM 35.9089 -78.6258 46° Northeast 209 241 5,600 -1,230 Descending Washington Center
Mon 01:15:53 PM 35.9500 -78.5733 352° North 209 241 4,300 -1,339 Descending Washington Center
Mon 01:16:47 PM 35.9914 -78.5803 268° West 183 211 3,100 -712 Descending Washington Center
Mon 01:17:51 PM 35.9903 -78.6314 223° Southwest 171 197 2,900 -145 Descending Washington Center
Mon 01:18:51 PM 35.9558 -78.6711 231° Southwest 171 197 2,800 -350 Descending Washington Center
Mon 01:19:51 PM 35.9233 -78.7211 226° Southwest 181 208 2,200 -828 Descending Washington Center
Mon 01:21:16 PM 35.8886 -78.7661 226° Southwest 111 128 800 -988 Descending Washington Center

Login

Don't have an account? Register now (free) for customized features, flight alerts, and more!